Time;durP1;ratioP1;P1;durP2;ratioP2;P2;SDS_P1;SDS_P2;PMS_P1;PMS_P2;Temp;Humidity;BMP_temperature;BMP_pressure;BME280_temperature;BME280_humidity;BME280_pressure;Samples;Min_cycle;Max_cycle;Signal;HPM_P1;HPM_P2
2023/01/08 00:02:09;;;;;;;70.07;32.90;;;;;;;8.81;100.00;100979.28;5006557;28;20031;-86
2023/01/08 00:04:35;;;;;;;70.13;31.33;;;;;;;8.65;100.00;100971.91;5008696;28;20528;-83
2023/01/08 00:07:02;;;;;;;67.75;31.67;;;;;;;8.47;100.00;100965.66;5007246;28;20090;-84
2023/01/08 00:09:27;;;;;;;80.90;36.60;;;;;;;8.53;100.00;100973.03;4995510;28;20037;-85
2023/01/08 00:11:53;;;;;;;74.38;32.05;;;;;;;8.53;100.00;100974.81;4997512;28;20040;-86
2023/01/08 00:14:19;;;;;;;75.22;35.05;;;;;;;8.29;100.00;100972.56;4994413;28;20026;-83
2023/01/08 00:16:47;;;;;;;85.88;37.42;;;;;;;8.25;100.00;100965.88;5011881;28;20038;-84
2023/01/08 00:19:13;;;;;;;74.90;35.33;;;;;;;8.18;100.00;100972.66;5005225;28;20030;-84
2023/01/08 00:21:38;;;;;;;89.78;39.38;;;;;;;8.27;100.00;100969.19;5005476;28;20039;-87
2023/01/08 00:24:04;;;;;;;92.35;40.75;;;;;;;8.42;100.00;100967.84;5000103;28;20050;-86
2023/01/08 00:26:30;;;;;;;78.70;35.83;;;;;;;8.47;100.00;100960.38;5003544;28;20050;-84
2023/01/08 00:28:59;;;;;;;79.38;36.00;;;;;;;8.68;100.00;100963.69;4988765;28;20125;-84
2023/01/08 00:31:29;;;;;;;69.03;34.08;;;;;;;8.52;100.00;100963.41;5006100;28;20030;-85
2023/01/08 00:33:55;;;;;;;76.45;34.45;;;;;;;8.68;100.00;100958.41;5008110;28;20045;-87
2023/01/08 00:36:23;;;;;;;68.13;31.17;;;;;;;8.62;100.00;100956.31;5010993;28;20041;-86
2023/01/08 00:38:51;;;;;;;75.38;35.83;;;;;;;8.67;100.00;100948.00;5006910;28;20097;-88
2023/01/08 00:41:16;;;;;;;75.32;33.95;;;;;;;8.58;100.00;100951.47;4973760;28;20046;-88
2023/01/08 00:43:42;;;;;;;69.30;32.05;;;;;;;8.79;100.00;100960.09;4981681;28;20030;-84
2023/01/08 00:46:10;;;;;;;118.07;55.80;;;;;;;8.67;100.00;100953.28;4988278;28;20077;-90
2023/01/08 00:48:37;;;;;;;97.70;48.00;;;;;;;8.82;100.00;100950.06;4980971;28;20465;-89
2023/01/08 00:51:05;;;;;;;108.53;51.35;;;;;;;8.77;100.00;100952.31;4966186;28;20047;-89
2023/01/08 00:53:30;;;;;;;207.02;98.63;;;;;;;8.78;100.00;100943.38;4963409;28;20030;-88
2023/01/08 00:56:04;;;;;;;67.85;32.92;;;;;;;8.59;100.00;100938.13;4980920;28;20370;-89
2023/01/08 00:58:30;;;;;;;65.20;30.63;;;;;;;8.72;100.00;100927.25;4979523;28;20512;-92
2023/01/08 01:00:55;;;;;;;66.00;31.58;;;;;;;8.82;100.00;100928.94;4980873;28;20031;-92
2023/01/08 01:03:33;;;;;;;77.03;34.28;;;;;;;8.48;100.00;100930.34;4980895;28;20485;-90
2023/01/08 01:06:03;;;;;;;67.57;30.75;;;;;;;8.64;100.00;100930.63;4980974;28;20116;-88
2023/01/08 01:08:29;;;;;;;60.63;29.60;;;;;;;8.73;100.00;100913.91;4981536;28;20037;-89
2023/01/08 01:10:54;;;;;;;68.13;31.42;;;;;;;8.66;100.00;100907.53;4980320;28;20034;-90
2023/01/08 01:13:23;;;;;;;76.55;33.95;;;;;;;8.71;100.00;100905.31;4981791;28;20049;-92
2023/01/08 01:15:59;;;;;;;70.47;32.63;;;;;;;8.68;100.00;100917.97;4966434;28;20031;-92
2023/01/08 01:18:27;;;;;;;70.13;30.92;;;;;;;8.59;100.00;100906.41;4999982;28;20481;-93
2023/01/08 01:20:53;;;;;;;66.00;31.70;;;;;;;8.62;100.00;100900.84;4982661;28;20466;-90
2023/01/08 01:23:18;;;;;;;66.82;31.88;;;;;;;8.61;100.00;100904.47;4982794;28;20034;-88
2023/01/08 01:25:44;;;;;;;67.10;30.55;;;;;;;8.72;100.00;100898.19;4982496;28;20035;-90
2023/01/08 01:28:10;;;;;;;65.38;31.17;;;;;;;8.49;100.00;100879.16;4967569;28;20027;-90
2023/01/08 01:30:35;;;;;;;62.05;30.02;;;;;;;8.72;100.00;100891.09;4965753;28;20113;-90
2023/01/08 01:33:01;;;;;;;68.72;31.08;;;;;;;8.55;100.00;100894.44;4962341;28;20041;-89
2023/01/08 01:35:29;;;;;;;90.55;47.08;;;;;;;8.50;100.00;100874.72;4987100;28;20120;-90
2023/01/08 01:37:55;;;;;;;67.15;33.17;;;;;;;8.47;100.00;100865.28;4976431;28;20085;-91
2023/01/08 01:40:20;;;;;;;69.85;34.08;;;;;;;8.69;100.00;100866.78;4979515;28;20038;-87
2023/01/08 01:42:46;;;;;;;59.55;29.23;;;;;;;8.85;100.00;100868.84;4992587;28;20110;-90
2023/01/08 01:45:26;;;;;;;71.82;32.10;;;;;;;8.57;100.00;100860.81;4970846;28;20035;-91
2023/01/08 01:47:58;;;;;;;57.70;29.35;;;;;;;8.44;100.00;100849.72;4990736;23;20081;-90
2023/01/08 01:50:29;;;;;;;61.58;29.67;;;;;;;8.61;100.00;100834.97;4958755;28;20043;-93
2023/01/08 01:53:09;;;;;;;68.05;30.92;;;;;;;8.46;100.00;100836.34;4963151;28;20039;-92
2023/01/08 01:55:37;;;;;;;62.97;31.00;;;;;;;8.67;100.00;100845.78;4941134;29;20568;-90
2023/01/08 01:58:12;;;;;;;61.75;31.17;;;;;;;8.41;100.00;100854.44;4939685;29;20035;-88
2023/01/08 02:00:37;;;;;;;81.57;35.35;;;;;;;8.18;100.00;100867.06;4957142;28;20050;-89
2023/01/08 02:03:05;;;;;;;74.00;36.22;;;;;;;8.15;100.00;100860.22;4962462;28;20019;-90
2023/01/08 02:05:58;;;;;;;82.82;35.58;;;;;;;8.14;100.00;100857.75;4962282;28;20118;-91
2023/01/08 02:08:32;;;;;;;79.53;35.67;;;;;;;8.25;100.00;100853.13;4961016;29;20035;-90
2023/01/08 02:11:15;;;;;;;71.70;34.22;;;;;;;8.27;100.00;100848.56;4926201;28;20035;-89
2023/01/08 02:13:51;;;;;;;80.90;36.95;;;;;;;8.38;100.00;100838.88;4958151;28;20082;-87
2023/01/08 02:16:44;;;;;;;64.75;32.45;;;;;;;8.32;100.00;100841.09;4956586;28;20130;-87
2023/01/08 02:19:15;;;;;;;;;;;;;;;8.48;100.00;100843.19;4957611;28;20046;-88
2023/01/08 02:21:58;;;;;;;67.30;31.42;;;;;;;8.53;100.00;100848.88;4958106;28;19938;-89
2023/01/08 02:24:36;;;;;;;;;;;;;;;8.36;100.00;100846.94;4958040;28;20053;-88
2023/01/08 02:27:04;;;;;;;63.92;31.02;;;;;;;8.53;100.00;100840.94;4957882;28;20291;-86
2023/01/08 02:29:31;;;;;;;64.38;32.25;;;;;;;8.51;100.00;100837.63;4957824;28;20042;-87
2023/01/08 02:31:56;;;;;;;79.32;33.75;;;;;;;8.40;100.00;100843.03;4958053;28;20075;-87
2023/01/08 02:34:22;;;;;;;59.80;29.48;;;;;;;8.28;100.00;100838.88;4957113;28;20027;-86
2023/01/08 02:36:53;;;;;;;80.78;35.55;;;;;;;8.32;100.00;100834.97;4957902;28;20043;-88
2023/01/08 02:39:29;;;;;;;74.63;33.55;;;;;;;8.23;100.00;100835.78;4958198;29;20043;-88
2023/01/08 02:42:05;;;;;;;72.63;33.67;;;;;;;8.23;100.00;100822.56;4941112;29;20039;-87
2023/01/08 02:44:44;;;;;;;66.30;32.65;;;;;;;8.34;100.00;100833.03;4957642;28;20501;-89
2023/01/08 02:47:23;;;;;;;72.85;34.63;;;;;;;8.26;100.00;100827.56;4958590;28;20059;-87
2023/01/08 02:50:06;;;;;;;70.35;32.63;;;;;;;8.27;100.00;100837.19;4957941;28;20486;-89
2023/01/08 02:52:35;;;;;;;82.72;35.78;;;;;;;8.25;100.00;100834.66;4957925;28;20050;-87
2023/01/08 02:55:02;;;;;;;73.60;34.58;;;;;;;8.27;100.00;100832.72;4957201;28;20043;-89
2023/01/08 02:57:31;;;;;;;70.57;33.47;;;;;;;8.30;100.00;100832.47;4958610;28;20031;-87
2023/01/08 02:59:57;;;;;;;67.75;32.58;;;;;;;8.29;100.00;100825.53;4957517;28;20097;-88
2023/01/08 03:02:24;;;;;;;68.80;30.98;;;;;;;8.22;100.00;100834.09;4958259;28;20114;-91
2023/01/08 03:04:58;;;;;;;67.60;33.28;;;;;;;8.17;100.00;100825.78;4959315;28;20042;-88
2023/01/08 03:07:24;;;;;;;74.75;36.15;;;;;;;8.22;100.00;100829.66;4970656;28;20099;-87
2023/01/08 03:09:51;;;;;;;65.63;31.05;;;;;;;8.33;100.00;100836.66;4972136;28;20050;-86
2023/01/08 03:12:35;;;;;;;68.68;33.65;;;;;;;8.15;100.00;100817.19;4957329;28;20041;-86
2023/01/08 03:15:08;;;;;;;71.63;32.78;;;;;;;8.19;100.00;100821.19;4958084;28;20405;-90
2023/01/08 03:17:38;;;;;;;80.97;38.40;;;;;;;8.18;100.00;100823.03;4958209;28;20091;-88
2023/01/08 03:20:32;;;;;;;225.85;127.03;;;;;;;8.23;100.00;100828.69;4957830;29;20035;-87
2023/01/08 03:23:02;;;;;;;68.20;33.60;;;;;;;8.31;100.00;100822.75;4939095;28;20048;-88
2023/01/08 03:25:29;;;;;;;69.00;33.20;;;;;;;8.40;100.00;100826.34;4955509;28;20039;-88
2023/01/08 03:28:01;;;;;;;74.03;34.13;;;;;;;8.42;100.00;100827.88;4958814;28;20459;-89
2023/01/08 03:30:29;;;;;;;63.88;32.28;;;;;;;8.34;100.00;100835.69;4957439;28;20041;-89
2023/01/08 03:32:59;;;;;;;69.82;33.53;;;;;;;8.46;100.00;100816.06;4958100;28;20093;-90
2023/01/08 03:35:26;;;;;;;69.50;33.97;;;;;;;8.53;100.00;100811.88;4957094;28;20167;-88
2023/01/08 03:38:10;;;;;;;63.50;33.92;;;;;;;8.47;100.00;100822.19;4956575;28;20083;-87
2023/01/08 03:40:46;;;;;;;63.00;31.95;;;;;;;8.36;100.00;100820.50;4957333;28;20039;-88
2023/01/08 03:43:11;;;;;;;72.53;33.17;;;;;;;8.28;100.00;100815.13;4957993;28;20039;-89
2023/01/08 03:45:45;;;;;;;66.90;33.90;;;;;;;8.34;100.00;100805.78;4958555;28;20352;-89
2023/01/08 03:48:11;;;;;;;67.22;32.28;;;;;;;8.27;100.00;100808.97;4957980;28;20047;-91
2023/01/08 03:50:36;;;;;;;72.05;34.22;;;;;;;8.27;100.00;100805.50;4958345;28;20074;-87
2023/01/08 03:53:02;;;;;;;68.85;33.78;;;;;;;8.30;100.00;100810.53;4957475;28;20130;-89
2023/01/08 03:55:27;;;;;;;66.07;33.78;;;;;;;8.39;100.00;100807.03;4955761;28;20168;-89
2023/01/08 03:57:53;;;;;;;71.35;33.35;;;;;;;8.41;100.00;100807.75;4963897;28;20435;-89
2023/01/08 04:00:18;;;;;;;70.78;31.80;;;;;;;8.43;100.00;100795.22;4962619;28;20027;-90
2023/01/08 04:02:44;;;;;;;63.45;30.92;;;;;;;8.35;100.00;100792.47;4957012;28;20028;-83
2023/01/08 04:05:13;;;;;;;65.90;32.47;;;;;;;8.36;100.00;100788.81;4942906;29;20035;-86
2023/01/08 04:07:38;;;;;;;67.15;32.15;;;;;;;8.44;100.00;100786.31;4960434;28;20034;-83
2023/01/08 04:10:04;;;;;;;59.25;31.48;;;;;;;8.46;100.00;100783.53;4960144;28;20036;-85
2023/01/08 04:12:30;;;;;;;65.78;32.78;;;;;;;8.40;100.00;100768.25;4960316;28;20257;-84
2023/01/08 04:14:55;;;;;;;71.68;34.80;;;;;;;8.36;100.00;100757.13;4962766;28;20063;-85
2023/01/08 04:17:21;;;;;;;65.32;32.97;;;;;;;8.53;100.00;100764.34;4950109;29;20114;-82
2023/01/08 04:19:46;;;;;;;70.10;34.47;;;;;;;8.33;100.00;100752.16;4942426;29;20102;-85
2023/01/08 04:22:12;;;;;;;67.00;33.30;;;;;;;8.44;100.00;100754.63;4958319;29;20031;-84
2023/01/08 04:24:40;;;;;;;70.35;35.17;;;;;;;8.42;100.00;100745.19;4960537;28;20035;-89
2023/01/08 04:27:06;;;;;;;64.80;32.50;;;;;;;8.35;100.00;100742.28;4959423;29;20046;-89
2023/01/08 04:29:31;;;;;;;68.25;32.33;;;;;;;8.25;100.00;100754.66;4960124;28;20121;-88
2023/01/08 04:31:57;;;;;;;84.55;35.10;;;;;;;8.12;100.00;100743.53;4961000;28;20465;-91
2023/01/08 04:34:22;;;;;;;76.18;36.35;;;;;;;8.20;100.00;100738.38;4961609;28;20117;-89
2023/01/08 04:36:51;;;;;;;75.13;35.50;;;;;;;8.32;100.00;100737.25;4960945;28;20069;-87
2023/01/08 04:39:17;;;;;;;76.53;37.20;;;;;;;8.31;100.00;100725.06;4960701;28;20038;-90
2023/01/08 04:41:42;;;;;;;69.70;33.67;;;;;;;8.29;100.00;100732.28;4960964;28;20039;-89
2023/01/08 04:44:11;;;;;;;87.25;36.17;;;;;;;8.21;100.00;100718.94;4960630;28;20035;-88
2023/01/08 04:46:36;;;;;;;72.95;35.63;;;;;;;8.26;100.00;100699.03;4960502;28;20046;-88
2023/01/08 04:49:02;;;;;;;70.78;35.28;;;;;;;8.08;100.00;100687.56;4944040;29;20379;-90
2023/01/08 04:51:27;;;;;;;76.07;35.22;;;;;;;8.19;100.00;100691.81;4961164;28;20035;-89
2023/01/08 04:53:53;;;;;;;71.72;34.50;;;;;;;8.08;100.00;100684.91;4958833;28;20047;-92
2023/01/08 04:56:19;;;;;;;73.50;34.80;;;;;;;8.08;100.00;100692.00;4962112;28;20050;-91
2023/01/08 04:58:48;;;;;;;70.45;36.60;;;;;;;8.20;100.00;100688.22;4962586;28;20059;-92
2023/01/08 05:01:28;;;;;;;156.95;84.82;;;;;;;8.28;100.00;100685.75;4961415;28;20549;-88
2023/01/08 05:03:55;;;;;;;81.88;39.35;;;;;;;8.51;100.00;100699.41;4951051;28;20105;-92
2023/01/08 05:06:23;;;;;;;77.28;36.50;;;;;;;8.67;100.00;100695.19;4946319;29;20490;-92
2023/01/08 05:08:48;;;;;;;73.15;35.30;;;;;;;8.57;100.00;100697.03;4944478;29;20393;-91
2023/01/08 05:11:14;;;;;;;77.85;38.10;;;;;;;8.68;100.00;100699.47;4962683;28;20043;-91
2023/01/08 05:13:40;;;;;;;79.43;40.03;;;;;;;8.54;100.00;100697.31;4959599;28;20123;-91
2023/01/08 05:16:06;;;;;;;88.00;40.25;;;;;;;8.64;100.00;100682.28;4928812;29;20036;-91
2023/01/08 05:18:32;;;;;;;88.72;42.00;;;;;;;8.63;100.00;100691.16;4941419;29;20095;-93
2023/01/08 05:21:02;;;;;;;80.93;37.50;;;;;;;8.76;100.00;100691.66;4926691;29;20043;-94
2023/01/08 05:23:29;;;;;;;77.93;36.65;;;;;;;8.46;100.00;100684.00;4937840;29;20031;-91
2023/01/08 05:25:57;;;;;;;79.05;35.70;;;;;;;8.34;100.00;100698.38;4970789;28;20051;-90
2023/01/08 05:28:23;;;;;;;78.68;37.20;;;;;;;8.32;100.00;100689.72;4980773;28;20024;-92
2023/01/08 05:30:52;;;;;;;87.57;36.50;;;;;;;8.21;100.00;100693.38;4963062;28;20031;-90
2023/01/08 05:33:18;;;;;;;73.32;33.75;;;;;;;8.30;100.00;100694.34;4949660;28;20046;-89
2023/01/08 05:36:07;;;;;;;79.03;35.88;;;;;;;8.27;100.00;100691.94;4961719;28;20450;-91
2023/01/08 05:38:33;;;;;;;79.47;36.85;;;;;;;8.23;100.00;100695.84;4961870;28;20045;-92
2023/01/08 05:40:58;;;;;;;75.97;36.90;;;;;;;8.31;100.00;100698.66;4971251;28;20051;-92
2023/01/08 05:43:25;;;;;;;84.43;38.08;;;;;;;8.37;100.00;100700.72;4980589;28;20150;-91
2023/01/08 05:46:10;;;;;;;80.30;38.83;;;;;;;8.34;100.00;100701.00;4980592;28;20083;-91
2023/01/08 05:48:39;;;;;;;87.15;38.97;;;;;;;8.37;100.00;100694.59;4980857;28;20030;-91
2023/01/08 05:51:04;;;;;;;86.35;39.10;;;;;;;8.31;100.00;100706.56;4996560;28;20055;-89
2023/01/08 05:53:31;;;;;;;80.03;37.45;;;;;;;8.35;100.00;100697.41;4960085;28;20095;-91
2023/01/08 05:56:01;;;;;;;86.35;39.35;;;;;;;8.29;100.00;100692.66;4980810;28;20039;-89
2023/01/08 05:58:30;;;;;;;88.47;38.20;;;;;;;8.26;100.00;100685.00;4964116;28;20039;-93
2023/01/08 06:01:09;;;;;;;92.15;37.38;;;;;;;8.29;100.00;100682.09;4996175;28;20024;-90
2023/01/08 06:03:35;;;;;;;99.88;40.78;;;;;;;8.14;100.00;100673.78;4968507;28;20055;-90
2023/01/08 06:06:02;;;;;;;90.88;39.45;;;;;;;8.29;100.00;100675.00;4996378;28;20075;-89
2023/01/08 06:08:29;;;;;;;81.53;38.90;;;;;;;8.39;100.00;100672.34;4979816;28;20090;-90
2023/01/08 06:11:03;;;;;;;88.85;39.22;;;;;;;8.40;100.00;100673.19;4979866;28;20152;-88
2023/01/08 06:13:28;;;;;;;80.53;38.60;;;;;;;8.34;100.00;100677.25;4974266;28;20402;-90
2023/01/08 06:15:57;;;;;;;90.65;39.90;;;;;;;8.49;100.00;100694.28;4959601;28;20027;-88
2023/01/08 06:18:22;;;;;;;98.82;41.92;;;;;;;8.36;100.00;100706.97;4958380;28;20045;-93
2023/01/08 06:20:53;;;;;;;91.88;40.75;;;;;;;8.63;100.00;100691.16;4948343;29;20043;-92
2023/01/08 06:23:26;;;;;;;94.35;40.83;;;;;;;8.54;100.00;100680.63;4966612;28;20035;-93
2023/01/08 06:25:54;;;;;;;93.70;41.75;;;;;;;8.54;100.00;100681.47;4993764;23;20055;-90
2023/01/08 06:28:25;;;;;;;93.22;39.55;;;;;;;8.64;100.00;100687.56;4971632;28;20035;-88
2023/01/08 06:30:57;;;;;;;64.85;28.48;;;;;;;8.53;100.00;100687.72;4953605;29;20140;-92
2023/01/08 06:33:22;;;;;;;92.85;41.08;;;;;;;8.43;100.00;100694.84;4960259;29;20031;-90
2023/01/08 06:35:48;;;;;;;100.50;43.60;;;;;;;8.36;100.00;100699.03;4961978;29;20031;-92
2023/01/08 06:38:13;;;;;;;102.15;44.40;;;;;;;8.36;100.00;100700.84;4961747;29;20066;-89
2023/01/08 06:40:39;;;;;;;101.25;43.65;;;;;;;8.27;100.00;100694.59;4950492;29;20039;-91
2023/01/08 06:43:05;;;;;;;111.60;48.72;;;;;;;8.21;100.00;100684.63;4968683;28;20078;-92
2023/01/08 06:45:31;;;;;;;118.00;48.40;;;;;;;8.20;100.00;100686.41;4973495;28;20134;-90
2023/01/08 06:48:01;;;;;;;110.60;47.08;;;;;;;8.14;100.00;100680.88;4977793;28;20067;-88
2023/01/08 06:50:28;;;;;;;117.15;47.25;;;;;;;8.16;100.00;100674.47;4977864;28;20046;-89
2023/01/08 06:53:28;;;;;;;;;;;;;;;;;;;;;
2023/01/08 06:55:57;;;;;;;116.45;47.28;;;;;;;8.12;100.00;100667.00;4949756;29;20086;-89
2023/01/08 06:58:27;;;;;;;115.65;48.70;;;;;;;8.10;100.00;100675.03;4949754;29;20062;-93
2023/01/08 07:00:53;;;;;;;105.88;47.33;;;;;;;8.16;100.00;100673.63;4974803;28;20027;-92
2023/01/08 07:03:23;;;;;;;97.95;43.75;;;;;;;8.43;100.00;100672.88;4968510;29;20363;-91
2023/01/08 07:08:30;;;;;;;92.65;43.40;;;;;;;8.46;100.00;100662.88;5002384;28;20046;-91
2023/01/08 07:10:55;;;;;;;88.57;40.42;;;;;;;8.38;100.00;100662.78;4981547;28;20034;-88
2023/01/08 07:13:22;;;;;;;102.97;43.72;;;;;;;8.16;100.00;100658.63;5000295;28;20085;-88
2023/01/08 07:15:49;;;;;;;96.43;43.92;;;;;;;8.07;100.00;100662.13;5000502;28;20073;-87
2023/01/08 07:18:14;;;;;;;92.63;42.83;;;;;;;8.09;100.00;100667.25;5005689;28;20438;-91
2023/01/08 07:20:40;;;;;;;94.15;43.47;;;;;;;8.10;100.00;100661.84;4989999;28;20125;-87
2023/01/08 07:23:09;;;;;;;95.82;43.83;;;;;;;8.05;100.00;100663.25;4996326;28;20500;-90
2023/01/08 07:25:34;;;;;;;96.45;44.97;;;;;;;7.95;100.00;100667.72;4998188;28;20030;-88
2023/01/08 07:28:01;;;;;;;100.03;43.97;;;;;;;8.01;100.00;100683.81;4981880;28;20045;-89
2023/01/08 07:30:27;;;;;;;101.20;44.10;;;;;;;8.20;100.00;100672.38;4996805;28;20034;-88
2023/01/08 07:32:52;;;;;;;88.68;41.67;;;;;;;8.42;100.00;100673.88;4995862;28;20233;-90
2023/01/08 07:35:18;;;;;;;84.03;39.40;;;;;;;8.40;100.00;100663.44;4978924;28;20399;-89
2023/01/08 07:37:43;;;;;;;86.75;41.17;;;;;;;8.24;100.00;100652.63;4975512;28;20126;-91
2023/01/08 07:40:11;;;;;;;93.72;42.78;;;;;;;8.22;100.00;100654.56;4992338;28;20074;-87
2023/01/08 07:42:49;;;;;;;197.38;90.65;;;;;;;8.19;100.00;100654.88;4999884;28;20113;-89
2023/01/08 07:45:21;;;;;;;95.55;43.47;;;;;;;8.41;100.00;100656.38;4991745;28;20046;-88
2023/01/08 07:47:53;;;;;;;99.47;44.03;;;;;;;8.23;100.00;100648.31;5001409;28;20026;-86
2023/01/08 07:50:18;;;;;;;103.95;46.58;;;;;;;8.18;100.00;100638.22;4996825;28;20493;-89
2023/01/08 07:52:50;;;;;;;105.75;46.22;;;;;;;8.13;100.00;100632.53;5000222;28;20102;-90
2023/01/08 07:55:20;;;;;;;106.60;44.40;;;;;;;8.11;100.00;100636.28;4996982;28;20126;-88
2023/01/08 07:57:46;;;;;;;114.57;46.63;;;;;;;8.12;100.00;100648.50;4998399;28;20022;-87
2023/01/08 08:00:21;;;;;;;112.18;47.95;;;;;;;8.10;100.00;100634.63;4996591;28;20044;-88
2023/01/08 08:02:50;;;;;;;111.22;46.30;;;;;;;8.12;100.00;100637.97;4987579;28;20026;-90
2023/01/08 08:05:17;;;;;;;139.95;46.78;;;;;;;8.14;100.00;100641.28;5004510;28;20067;-90
2023/01/08 08:07:43;;;;;;;124.75;46.38;;;;;;;8.20;100.00;100640.69;5005322;28;20026;-88
2023/01/08 08:10:10;;;;;;;112.90;45.63;;;;;;;8.11;100.00;100641.56;5006131;28;20022;-91
2023/01/08 08:12:45;;;;;;;123.18;48.90;;;;;;;8.11;100.00;100641.56;4987418;28;20113;-89
2023/01/08 08:15:14;;;;;;;122.95;49.22;;;;;;;8.18;100.00;100625.03;5001749;28;20042;-88
2023/01/08 08:17:44;;;;;;;145.75;48.75;;;;;;;8.13;100.00;100629.88;5000611;28;20053;-90
2023/01/08 08:20:10;;;;;;;113.88;48.20;;;;;;;8.09;100.00;100630.31;5003786;28;20069;-90
2023/01/08 08:22:35;;;;;;;123.88;47.95;;;;;;;8.05;100.00;100616.59;4989676;28;20038;-88
2023/01/08 08:25:04;;;;;;;108.85;47.13;;;;;;;8.00;100.00;100623.25;4986109;28;20046;-90
2023/01/08 08:27:38;;;;;;;86.68;35.33;;;;;;;7.82;100.00;100615.25;4994574;28;20042;-91
2023/01/08 08:30:05;;;;;;;110.25;47.10;;;;;;;7.89;100.00;100623.44;5009068;28;20041;-91
2023/01/08 08:32:33;;;;;;;124.55;48.55;;;;;;;8.16;100.00;100623.47;4995701;28;20034;-89
2023/01/08 08:35:05;;;;;;;111.50;46.03;;;;;;;8.18;100.00;100626.81;4981296;28;20037;-92
2023/01/08 08:37:31;;;;;;;112.78;47.15;;;;;;;8.11;100.00;100625.72;4981017;28;20054;-92
2023/01/08 08:39:59;;;;;;;107.20;45.35;;;;;;;8.02;100.00;100616.03;5000422;28;20034;-90
2023/01/08 08:42:25;;;;;;;115.70;47.97;;;;;;;7.94;100.00;100615.91;5017632;28;20019;-87
2023/01/08 08:44:54;;;;;;;130.70;48.67;;;;;;;7.91;100.00;100609.13;5002437;28;20035;-88
2023/01/08 08:47:41;;;;;;;123.50;49.65;;;;;;;7.76;100.00;100611.34;5013748;28;20058;-87
2023/01/08 08:50:10;;;;;;;132.50;50.63;;;;;;;7.82;100.00;100599.44;5009455;28;20030;-88
2023/01/08 08:52:49;;;;;;;124.07;49.65;;;;;;;7.91;100.00;100587.16;5337963;23;20074;-82
2023/01/08 08:55:33;;;;;;;123.85;50.75;;;;;;;7.87;100.00;100576.06;4980037;28;20054;-86
2023/01/08 08:58:09;;;;;;;136.82;52.00;;;;;;;7.98;100.00;100577.72;4986753;28;20038;-88
2023/01/08 09:00:39;;;;;;;136.98;53.70;;;;;;;8.02;100.00;100568.53;4986310;28;20035;-89
2023/01/08 09:03:05;;;;;;;137.82;51.95;;;;;;;7.91;100.00;100573.97;4985595;28;20035;-87
2023/01/08 09:05:39;;;;;;;137.55;53.05;;;;;;;8.17;100.00;100572.34;4969389;28;20049;-90
2023/01/08 09:08:08;;;;;;;129.20;52.25;;;;;;;8.18;100.00;100574.03;4972314;28;20039;-87
2023/01/08 09:10:43;;;;;;;130.20;51.78;;;;;;;8.04;100.00;100571.84;4969946;28;20073;-89
2023/01/08 09:13:13;;;;;;;128.25;52.13;;;;;;;8.25;100.00;100570.63;4989001;28;20082;-88
2023/01/08 09:15:39;;;;;;;132.60;51.88;;;;;;;8.30;100.00;100570.25;4973124;28;20045;-89
2023/01/08 09:18:05;;;;;;;137.65;54.17;;;;;;;8.12;100.00;100569.31;4959199;28;20042;-87
2023/01/08 09:20:31;;;;;;;133.95;53.92;;;;;;;8.12;100.00;100566.69;4987799;28;20089;-89
2023/01/08 09:22:58;;;;;;;137.48;53.80;;;;;;;8.04;100.00;100558.66;4979831;28;20340;-87
2023/01/08 09:25:24;;;;;;;148.75;55.58;;;;;;;7.96;100.00;100559.38;4988344;28;20035;-86
2023/01/08 09:28:06;;;;;;;153.07;57.67;;;;;;;8.12;100.00;100561.41;4978815;28;20030;-88
2023/01/08 09:30:32;;;;;;;137.95;53.65;;;;;;;8.19;100.00;100559.81;4989365;28;20045;-88
2023/01/08 09:33:02;;;;;;;141.85;54.78;;;;;;;7.97;100.00;100560.19;4975761;28;20042;-89
2023/01/08 09:35:29;;;;;;;147.65;56.92;;;;;;;7.85;100.00;100556.09;4965611;28;20154;-88
2023/01/08 09:37:55;;;;;;;147.30;55.70;;;;;;;8.07;100.00;100561.00;4946270;29;20070;-89
2023/01/08 09:40:27;;;;;;;154.93;56.85;;;;;;;7.98;100.00;100546.88;4961829;29;20070;-88
2023/01/08 09:43:26;;;;;;;152.82;56.83;;;;;;;8.09;100.00;100548.47;4980372;28;20038;-87
2023/01/08 09:45:57;;;;;;;151.85;57.17;;;;;;;8.01;100.00;100543.09;4975976;28;20055;-91
2023/01/08 09:48:26;;;;;;;151.82;58.22;;;;;;;7.99;100.00;100547.69;4964532;28;20494;-90
2023/01/08 09:50:52;;;;;;;156.35;59.50;;;;;;;8.03;100.00;100541.13;4995070;28;20030;-90
2023/01/08 09:53:18;;;;;;;162.57;58.00;;;;;;;8.02;100.00;100542.94;4976134;28;20049;-88
2023/01/08 09:55:55;;;;;;;154.63;58.22;;;;;;;7.93;100.00;100532.44;4985247;28;20038;-88
2023/01/08 09:58:49;;;;;;;151.05;57.97;;;;;;;8.07;100.00;100524.03;4981086;28;20047;-92
2023/01/08 10:01:43;;;;;;;161.23;58.45;;;;;;;7.94;100.00;100515.63;4996495;28;20055;-88
2023/01/08 10:04:16;;;;;;;159.77;56.80;;;;;;;8.06;100.00;100514.44;4987820;28;20038;-91
2023/01/08 10:07:13;;;;;;;160.65;57.70;;;;;;;8.13;100.00;100508.44;4991794;28;20042;-89
2023/01/08 10:09:42;;;;;;;161.85;58.92;;;;;;;8.11;100.00;100509.59;4987898;28;20030;-89
2023/01/08 10:12:11;;;;;;;163.73;60.70;;;;;;;8.06;100.00;100506.53;4941679;28;20027;-86
2023/01/08 10:14:46;;;;;;;161.75;59.30;;;;;;;8.04;100.00;100514.63;4975176;28;20031;-88
2023/01/08 10:17:15;;;;;;;160.57;60.90;;;;;;;8.06;100.00;100509.19;4962206;28;20039;-87
2023/01/08 10:19:41;;;;;;;163.02;62.38;;;;;;;7.98;100.00;100506.44;4978898;28;20462;-86
2023/01/08 10:22:16;;;;;;;157.20;59.20;;;;;;;7.98;100.00;100509.09;4967972;28;20089;-85
2023/01/08 10:24:42;;;;;;;156.23;58.42;;;;;;;8.06;100.00;100495.97;4993696;28;20027;-87
2023/01/08 10:27:14;;;;;;;151.02;59.20;;;;;;;8.14;100.00;100490.81;4980517;28;20086;-86
2023/01/08 10:29:40;;;;;;;171.23;60.75;;;;;;;8.07;100.00;100487.09;4999100;28;20549;-88
2023/01/08 10:32:16;;;;;;;162.20;58.58;;;;;;;8.05;100.00;100489.06;4993389;28;20028;-88
2023/01/08 10:34:45;;;;;;;172.15;62.70;;;;;;;7.88;100.00;100492.47;4985107;28;20062;-88
2023/01/08 10:37:28;;;;;;;173.80;62.72;;;;;;;7.89;100.00;100481.75;4970354;28;20035;-90
2023/01/08 10:40:16;;;;;;;175.15;61.25;;;;;;;7.96;100.00;100474.09;4967313;28;20102;-89
2023/01/08 10:42:42;;;;;;;166.48;59.92;;;;;;;8.13;100.00;100457.47;4943783;28;20403;-89
2023/01/08 10:45:27;;;;;;;173.55;61.70;;;;;;;8.20;100.00;100450.63;4980395;28;20078;-87
2023/01/08 10:48:03;;;;;;;173.02;59.00;;;;;;;8.18;100.00;100445.50;4962668;28;20074;-86
2023/01/08 10:50:41;;;;;;;160.63;59.30;;;;;;;8.13;100.00;100449.53;4973922;28;20054;-89
2023/01/08 10:53:27;;;;;;;159.50;57.83;;;;;;;8.18;100.00;100447.31;4947729;28;20046;-89
2023/01/08 10:56:02;;;;;;;143.98;54.17;;;;;;;8.15;100.00;100452.88;4988320;28;20025;-86
2023/01/08 10:58:40;;;;;;;154.30;57.40;;;;;;;8.24;100.00;100454.63;4989093;28;20030;-90
2023/01/08 11:01:14;;;;;;;151.25;56.17;;;;;;;8.13;100.00;100449.53;4962936;28;20043;-88
2023/01/08 11:04:03;;;;;;;156.98;59.17;;;;;;;8.19;100.00;100447.13;4978907;28;20058;-89
2023/01/08 11:06:33;;;;;;;156.65;56.63;;;;;;;8.12;100.00;100458.47;5018694;23;20042;-91
2023/01/08 11:30:31;;;;;;;124.38;49.97;;;;;;;8.40;100.00;100436.34;4691502;26;20059;-91
2023/01/08 11:33:06;;;;;;;113.90;45.05;;;;;;;8.54;100.00;100427.91;4958167;28;20023;-92
2023/01/08 11:36:19;;;;;;;120.20;49.83;;;;;;;8.39;100.00;100429.38;4979094;28;20027;-87
2023/01/08 11:38:49;;;;;;;124.57;48.55;;;;;;;8.26;100.00;100423.63;4920217;29;20048;-89
2023/01/08 11:44:24;;;;;;;120.38;47.63;;;;;;;8.29;100.00;100428.63;4968454;28;20140;-88
2023/01/08 11:47:06;;;;;;;121.45;47.45;;;;;;;8.37;100.00;100417.31;4956108;29;20055;-89
2023/01/08 11:49:57;;;;;;;130.73;51.80;;;;;;;8.48;100.00;100415.31;4966088;28;20050;-90
2023/01/08 11:52:33;;;;;;;127.07;48.22;;;;;;;8.44;100.00;100405.19;4957606;28;20065;-88